createdAt,value
2023-02-21T04:20:06.763Z,100.00
2023-02-21T04:22:37.601Z,100.00
2023-02-21T04:25:04.371Z,100.00
2023-02-21T04:27:37.079Z,100.00
2023-02-21T04:30:04.801Z,100.00
2023-02-21T04:32:31.533Z,100.00
2023-02-21T04:35:01.954Z,100.00
2023-02-21T04:37:32.278Z,100.00
2023-02-21T04:39:59.098Z,100.00
2023-02-21T04:42:25.645Z,100.00
2023-02-21T04:45:00.104Z,100.00
2023-02-21T04:47:28.841Z,100.00
2023-02-21T04:49:55.590Z,100.00
2023-02-21T04:52:22.233Z,100.00
2023-02-21T04:54:48.925Z,100.00
2023-02-21T04:57:16.711Z,100.00
2023-02-21T04:59:43.227Z,100.00
2023-02-21T05:02:10.153Z,100.00
2023-02-21T05:04:37.157Z,100.00
2023-02-21T05:07:04.624Z,100.00
2023-02-21T05:09:31.814Z,100.00
2023-02-21T05:11:58.327Z,100.00
2023-02-21T05:14:24.837Z,100.00
2023-02-21T05:16:51.466Z,100.00
2023-02-21T05:19:27.518Z,100.00
2023-02-21T05:21:59.055Z,100.00
2023-02-21T05:24:27.675Z,100.00
2023-02-21T05:26:54.602Z,100.00
2023-02-21T05:29:21.483Z,100.00
2023-02-21T05:31:48.522Z,100.00
2023-02-21T05:34:16.043Z,100.00
2023-02-21T05:36:42.629Z,100.00
2023-02-21T05:39:10.078Z,100.00
2023-02-21T05:41:37.181Z,100.00
2023-02-21T05:44:04.534Z,100.00
2023-02-21T05:46:33.753Z,100.00
2023-02-21T05:49:01.862Z,100.00
2023-02-21T05:51:34.321Z,100.00
2023-02-21T05:54:00.855Z,100.00
2023-02-21T05:56:27.349Z,100.00
2023-02-21T05:58:53.843Z,100.00
2023-02-21T06:01:20.551Z,100.00
2023-02-21T06:03:47.181Z,100.00
2023-02-21T06:06:17.080Z,100.00
2023-02-21T06:08:46.146Z,100.00
2023-02-21T06:11:13.626Z,100.00
2023-02-21T06:13:41.110Z,100.00
2023-02-21T06:16:07.684Z,100.00
2023-02-21T06:18:34.382Z,100.00
2023-02-21T06:21:00.921Z,100.00
2023-02-21T06:23:27.677Z,100.00
2023-02-21T06:25:54.199Z,100.00
2023-02-21T06:28:20.780Z,100.00
2023-02-21T06:30:47.474Z,100.00
2023-02-21T06:33:14.338Z,100.00
2023-02-21T06:35:40.832Z,100.00
2023-02-21T06:38:07.302Z,100.00
2023-02-21T06:40:33.742Z,100.00
2023-02-21T06:43:00.266Z,100.00
2023-02-21T06:45:26.834Z,100.00
2023-02-21T06:47:53.406Z,100.00
2023-02-21T06:50:19.928Z,100.00
2023-02-21T06:52:46.454Z,100.00
2023-02-21T06:55:12.913Z,100.00
2023-02-21T06:57:39.457Z,100.00
2023-02-21T07:00:09.459Z,100.00
2023-02-21T07:02:36.161Z,100.00
2023-02-21T07:05:02.873Z,100.00
2023-02-21T07:07:29.428Z,100.00
2023-02-21T07:09:55.951Z,100.00
2023-02-21T07:12:22.517Z,100.00
2023-02-21T07:14:49.038Z,100.00
2023-02-21T07:17:15.554Z,100.00
2023-02-21T07:19:44.626Z,100.00
2023-02-21T07:22:11.366Z,100.00
2023-02-21T07:24:38.051Z,100.00
2023-02-21T07:27:04.713Z,100.00
2023-02-21T07:29:31.187Z,100.00
2023-02-21T07:31:58.006Z,100.00
2023-02-21T07:34:24.626Z,100.00
2023-02-21T07:36:51.196Z,100.00
2023-02-21T07:39:17.872Z,100.00
2023-02-21T07:41:44.488Z,100.00
2023-02-21T07:44:11.110Z,100.00
2023-02-21T07:46:37.672Z,100.00
2023-02-21T07:49:04.173Z,100.00
2023-02-21T07:51:31.266Z,100.00
2023-02-21T07:53:57.879Z,100.00
2023-02-21T07:56:26.463Z,100.00
2023-02-21T07:58:52.949Z,100.00
2023-02-21T08:01:23.657Z,100.00
2023-02-21T08:03:50.241Z,100.00
2023-02-21T08:06:18.092Z,100.00
2023-02-21T08:08:45.412Z,100.00
2023-02-21T08:11:11.998Z,100.00
2023-02-21T08:13:38.681Z,100.00
2023-02-21T08:16:05.548Z,100.00
2023-02-21T08:18:32.050Z,100.00
2023-02-21T08:20:58.530Z,100.00
2023-02-21T08:23:25.184Z,100.00
2023-02-21T08:25:51.672Z,100.00
2023-02-21T08:28:18.226Z,100.00
2023-02-21T08:30:44.820Z,100.00
2023-02-21T08:33:11.364Z,98.23
2023-02-21T08:35:38.014Z,93.77
2023-02-21T08:38:04.966Z,100.00
2023-02-21T08:40:31.820Z,100.00
2023-02-21T08:43:00.134Z,100.00
2023-02-21T08:45:28.307Z,100.00
2023-02-21T08:47:55.123Z,100.00
2023-02-21T08:50:23.754Z,100.00
2023-02-21T08:52:51.027Z,100.00
2023-02-21T08:55:17.994Z,100.00
2023-02-21T08:57:44.461Z,100.00
2023-02-21T09:00:13.989Z,100.00
2023-02-21T09:02:41.027Z,100.00
2023-02-21T09:05:17.437Z,100.00
2023-02-21T09:07:43.974Z,100.00
2023-02-21T09:10:11.733Z,100.00
2023-02-21T09:12:39.019Z,100.00
2023-02-21T09:15:07.033Z,100.00
2023-02-21T09:17:33.933Z,100.00
2023-02-21T09:20:13.266Z,100.00
2023-02-21T09:22:44.884Z,100.00
2023-02-21T09:25:13.166Z,100.00
2023-02-21T09:27:40.561Z,100.00
2023-02-21T09:30:09.215Z,100.00
2023-02-21T09:32:36.689Z,100.00
2023-02-21T09:35:03.999Z,100.00
2023-02-21T09:37:30.574Z,100.00
2023-02-21T09:39:57.161Z,100.00
2023-02-21T09:42:29.439Z,100.00
2023-02-21T09:44:56.018Z,100.00
2023-02-21T09:47:33.177Z,100.00
2023-02-21T09:50:05.132Z,100.00
2023-02-21T09:52:36.081Z,100.00
2023-02-21T09:55:12.730Z,100.00
2023-02-21T09:57:39.365Z,100.00
2023-02-21T10:00:36.413Z,100.00
2023-02-21T10:03:36.656Z,100.00
2023-02-21T10:06:36.454Z,100.00
2023-02-21T10:09:19.417Z,100.00
2023-02-21T10:11:55.014Z,100.00
2023-02-21T10:15:01.623Z,100.00
2023-02-21T10:17:43.223Z,100.00
2023-02-21T10:20:33.230Z,100.00
2023-02-21T10:23:02.248Z,100.00
2023-02-21T10:25:31.996Z,100.00
2023-02-21T10:27:59.896Z,100.00
2023-02-21T10:30:32.126Z,100.00
2023-02-21T10:32:58.700Z,100.00
2023-02-21T10:35:25.319Z,100.00
2023-02-21T10:37:56.191Z,100.00
2023-02-21T10:40:51.033Z,100.00
2023-02-21T10:43:19.508Z,100.00
2023-02-21T10:46:13.360Z,100.00
2023-02-21T10:48:42.734Z,100.00
2023-02-21T10:51:15.413Z,100.00
2023-02-21T10:53:44.427Z,100.00
2023-02-21T10:56:19.832Z,100.00
2023-02-21T10:59:05.891Z,100.00
2023-02-21T11:01:43.116Z,100.00
2023-02-21T11:04:22.509Z,100.00
2023-02-21T11:07:05.223Z,100.00
2023-02-21T11:09:34.965Z,100.00
2023-02-21T11:12:31.039Z,100.00
2023-02-21T11:14:57.501Z,100.00
2023-02-21T11:17:28.469Z,100.00
2023-02-21T11:20:01.067Z,100.00
2023-02-21T11:22:38.638Z,100.00
2023-02-21T11:25:32.258Z,100.00
2023-02-21T11:28:12.681Z,100.00
2023-02-21T11:30:44.208Z,100.00
2023-02-21T11:33:10.886Z,100.00
2023-02-21T11:35:46.111Z,100.00
2023-02-21T11:38:37.643Z,100.00
2023-02-21T11:41:28.621Z,100.00
2023-02-21T11:43:56.737Z,100.00
2023-02-21T11:46:23.298Z,100.00
2023-02-21T11:49:05.697Z,100.00
2023-02-21T11:51:46.935Z,100.00
2023-02-21T11:54:14.493Z,100.00
2023-02-21T11:56:48.766Z,100.00
2023-02-21T11:59:37.022Z,100.00
2023-02-21T12:02:18.868Z,100.00
2023-02-21T12:04:48.110Z,100.00
2023-02-21T12:07:24.022Z,100.00
2023-02-21T12:10:22.279Z,100.00
2023-02-21T12:12:56.868Z,100.00
2023-02-21T12:15:26.274Z,100.00
2023-02-21T12:18:34.919Z,100.00
2023-02-21T12:21:04.440Z,100.00
2023-02-21T12:23:45.942Z,87.12
2023-02-21T12:26:57.730Z,73.88
2023-02-21T12:29:30.463Z,93.17
2023-02-21T12:32:15.821Z,86.27
2023-02-21T12:35:21.973Z,99.95
2023-02-21T12:38:19.495Z,89.46
2023-02-21T12:41:18.992Z,61.80
2023-02-21T12:43:56.733Z,45.80
2023-02-21T12:46:32.395Z,51.51
2023-02-21T12:49:26.828Z,58.77
2023-02-21T12:52:00.401Z,69.68
2023-02-21T12:55:06.097Z,100.00
2023-02-21T12:57:48.749Z,100.00
2023-02-21T13:00:22.278Z,100.00
2023-02-21T13:03:25.700Z,100.00
2023-02-21T13:05:57.781Z,100.00
2023-02-21T13:08:27.059Z,100.00
2023-02-21T13:11:14.379Z,100.00
2023-02-21T13:13:41.114Z,100.00
2023-02-21T13:16:11.321Z,85.75
2023-02-21T13:18:44.129Z,69.37
2023-02-21T13:21:23.058Z,64.21
2023-02-21T13:24:47.409Z,60.46
2023-02-21T13:27:40.214Z,53.39
2023-02-21T13:30:12.963Z,49.32
2023-02-21T13:32:42.699Z,51.14
2023-02-21T13:35:10.744Z,63.79
2023-02-21T13:37:46.642Z,54.99
2023-02-21T13:40:36.233Z,85.65
2023-02-21T13:43:12.282Z,100.00
2023-02-21T13:45:40.499Z,100.00
2023-02-21T13:48:06.946Z,100.00
2023-02-21T13:50:39.815Z,100.00
2023-02-21T13:53:09.511Z,100.00
2023-02-21T13:55:37.056Z,100.00
2023-02-21T13:58:05.203Z,100.00
2023-02-21T14:00:31.794Z,100.00
2023-02-21T14:03:08.688Z,100.00
2023-02-21T14:05:47.727Z,100.00
2023-02-21T14:08:16.888Z,100.00
2023-02-21T14:10:47.836Z,91.07
2023-02-21T14:13:21.211Z,76.92
2023-02-21T14:15:56.283Z,70.78
2023-02-21T14:18:29.093Z,83.66
2023-02-21T14:20:57.696Z,84.76
2023-02-21T14:23:36.016Z,74.26
2023-02-21T14:26:04.915Z,71.25
2023-02-21T14:28:56.315Z,72.60
2023-02-21T14:31:49.149Z,72.54
2023-02-21T14:34:40.396Z,77.66
2023-02-21T14:37:21.591Z,92.06
2023-02-21T14:40:17.953Z,100.00
2023-02-21T14:43:02.352Z,100.00
2023-02-21T14:45:44.625Z,100.00
2023-02-21T14:48:37.574Z,100.00
2023-02-21T14:51:41.420Z,100.00
2023-02-21T14:54:43.215Z,100.00
2023-02-21T14:57:34.915Z,100.00
2023-02-21T15:00:28.543Z,100.00
2023-02-21T15:03:00.980Z,100.00
2023-02-21T15:05:33.740Z,100.00
2023-02-21T15:08:13.606Z,100.00
2023-02-21T15:10:42.280Z,100.00
2023-02-21T15:13:35.674Z,100.00
2023-02-21T15:16:11.932Z,100.00
2023-02-21T15:18:57.693Z,100.00
2023-02-21T15:21:24.084Z,100.00
2023-02-21T15:24:14.402Z,100.00
2023-02-21T15:26:40.956Z,100.00
2023-02-21T15:29:16.320Z,100.00
2023-02-21T15:31:45.219Z,100.00
2023-02-21T15:34:18.436Z,100.00
2023-02-21T15:36:55.032Z,100.00
2023-02-21T15:39:28.942Z,100.00
2023-02-21T15:41:59.856Z,100.00
2023-02-21T15:45:07.470Z,100.00
2023-02-21T15:47:35.845Z,100.00
2023-02-21T15:50:04.935Z,100.00
2023-02-21T15:52:39.203Z,100.00
2023-02-21T15:55:22.903Z,100.00
2023-02-21T15:57:58.550Z,100.00
2023-02-21T16:00:31.002Z,100.00
2023-02-21T16:03:30.317Z,100.00
2023-02-21T16:06:29.009Z,100.00
2023-02-21T16:08:58.771Z,100.00
2023-02-21T16:11:38.223Z,100.00
2023-02-21T16:14:05.002Z,100.00
2023-02-21T16:16:35.613Z,100.00
2023-02-21T16:19:02.268Z,100.00
2023-02-21T16:21:29.771Z,100.00
2023-02-21T16:23:56.334Z,100.00
2023-02-21T16:26:28.971Z,100.00
2023-02-21T16:28:58.430Z,100.00
2023-02-21T16:31:29.201Z,100.00
2023-02-21T16:33:56.814Z,100.00
2023-02-21T16:36:29.047Z,100.00
2023-02-21T16:38:57.329Z,100.00
2023-02-21T16:41:24.376Z,100.00
2023-02-21T16:43:51.274Z,100.00
2023-02-21T16:46:29.595Z,100.00
2023-02-21T16:48:56.887Z,100.00
2023-02-21T16:51:23.574Z,100.00
2023-02-21T16:53:50.190Z,100.00
2023-02-21T16:56:17.069Z,100.00
2023-02-21T16:58:47.188Z,100.00
2023-02-21T17:01:32.362Z,100.00
2023-02-21T17:03:59.397Z,100.00
2023-02-21T17:06:27.670Z,100.00
2023-02-21T17:08:54.512Z,100.00
2023-02-21T17:11:21.358Z,100.00
2023-02-21T17:13:48.086Z,100.00
2023-02-21T17:16:14.984Z,100.00
2023-02-21T17:18:43.550Z,100.00
2023-02-21T17:21:10.179Z,100.00
2023-02-21T17:23:37.377Z,100.00
2023-02-21T17:26:04.268Z,100.00
2023-02-21T17:28:30.939Z,100.00
2023-02-21T17:30:57.554Z,100.00
2023-02-21T17:33:24.039Z,100.00
2023-02-21T17:35:52.845Z,100.00
2023-02-21T17:38:19.365Z,100.00
2023-02-21T17:40:46.430Z,100.00
2023-02-21T17:43:15.665Z,100.00
2023-02-21T17:45:42.194Z,100.00
2023-02-21T17:48:08.672Z,100.00
2023-02-21T17:50:35.178Z,100.00
2023-02-21T17:53:01.754Z,100.00
2023-02-21T17:55:30.036Z,100.00
2023-02-21T17:57:57.518Z,100.00
2023-02-21T18:00:27.154Z,100.00
2023-02-21T18:02:55.430Z,100.00
2023-02-21T18:05:40.513Z,100.00
2023-02-21T18:08:27.356Z,100.00
2023-02-21T18:11:17.113Z,100.00
2023-02-21T18:14:05.112Z,100.00
2023-02-21T18:16:52.412Z,100.00
2023-02-21T18:19:39.197Z,100.00
2023-02-21T18:22:26.035Z,100.00
2023-02-21T18:25:16.700Z,100.00
2023-02-21T18:28:04.920Z,100.00
2023-02-21T18:30:53.658Z,100.00
2023-02-21T18:33:40.492Z,100.00
2023-02-21T18:36:27.374Z,100.00
2023-02-21T18:39:21.989Z,100.00
2023-02-21T18:42:08.840Z,100.00
2023-02-21T18:44:56.408Z,100.00
2023-02-21T18:47:43.243Z,100.00
2023-02-21T18:50:30.116Z,100.00
2023-02-21T18:53:17.916Z,100.00
2023-02-21T18:56:09.216Z,100.00
2023-02-21T18:58:56.123Z,100.00
2023-02-21T19:01:43.096Z,100.00
2023-02-21T19:04:30.032Z,100.00
2023-02-21T19:07:17.146Z,100.00
2023-02-21T19:10:04.353Z,100.00
2023-02-21T19:12:51.810Z,100.00
2023-02-21T19:15:38.665Z,100.00
2023-02-21T19:18:25.762Z,100.00
2023-02-21T19:21:16.484Z,100.00
2023-02-21T19:24:04.184Z,100.00
2023-02-21T19:26:51.248Z,100.00
2023-02-21T19:29:38.098Z,100.00
2023-02-21T19:32:25.223Z,100.00
2023-02-21T19:35:12.122Z,100.00
2023-02-21T19:38:02.864Z,100.00
2023-02-21T19:40:49.854Z,100.00
2023-02-21T19:43:36.792Z,100.00
2023-02-21T19:46:26.552Z,100.00
2023-02-21T19:49:17.691Z,100.00
2023-02-21T19:52:05.500Z,100.00
2023-02-21T19:54:52.353Z,100.00
2023-02-21T19:57:39.158Z,100.00
2023-02-21T20:00:27.247Z,100.00
2023-02-21T20:03:14.167Z,100.00
2023-02-21T20:06:03.148Z,100.00
2023-02-21T20:08:50.738Z,100.00
2023-02-21T20:11:40.125Z,100.00
2023-02-21T20:14:27.776Z,100.00
2023-02-21T20:17:15.088Z,100.00
2023-02-21T20:20:02.081Z,100.00
2023-02-21T20:22:48.917Z,100.00
2023-02-21T20:25:35.853Z,100.00
2023-02-21T20:28:22.748Z,100.00
2023-02-21T20:31:10.859Z,100.00
2023-02-21T20:34:02.626Z,100.00
